EDFM/MHG METAR and TAF weather

Enter ICAO airport designator
Station Type Date Time Source
EDFM METAR 2020/01/22 12:20 UTC NOAA

EDFM 221220Z 01004KT 340V040 5000 BR BKN006 M01/M02 Q1036


Station Type Date Time Source
EDFM Decoded METAR 2020/01/22 12:20 UTC NOAA

Baden Wurttemberg, Neuostheim, Germany (EDFM) 49-28-21N 008-30-56E
Jan 22, 2020 - 07:20 AM EST / 2020.01.22 1220 UTC
Wind: from the N (010 degrees) at 5 MPH (4 KT) (direction variable):0
Visibility: 3 mile(s):0
Sky conditions: mostly cloudy
Weather: mist
Temperature: 30 F (-1 C)
Windchill: 24 F (-4 C):1
Dew Point: 28 F (-2 C)
Relative Humidity: 92%
Pressure (altimeter): 30.59 in. Hg (1036 hPa)
ob: EDFM 221220Z 01004KT 340V040 5000 BR BKN006 M01/M02 Q1036
cycle: 12

Station Type Date Time Source
EDFM TAF 2012/03/06 06:30 UTC NOAA

TAF EDFM 060519Z 0606/0621 15004KT 9999 FEW040

Example: see airport list